Etusivu
METAR-TAF:

METAR-TAF

Lentoasemat :

Lawrence Municipal Airport

Lawrence, Kansas, Yhdysvallat

Leveyspiiri: 39-00-30N, Pituuspiiri: 095-12-42W, korkeus merenpinnasta: 253 m

Tämänhetkinen sää

Tämä raportti tehtiin 47 minuuttia sitten, kello 01.52 UTC
tyyntä
Lämpötila 5°C
Kosteus 70%
Ilmanpaine 1006 hPa
Näkyvyys: 16.1 km
selkeää

METAR: KLWC 190152Z AUTO 00000KT 10SM CLR 05/00 A2971 RMK AO2 SLP065 T00500000

Aika: 20:39 (02:39 UTC)


TAF: puuttuu

Säähavainnot ja -ennusteet yli 4000 lentoasemalta (METAR- ja TAF-raportit).

Käytössä olevat sääasemat on merkitty karttaan keltaisilla ja punaisilla pisteillä.

Aseta hiiri pisteen päälle nähdäksesi sääaseman nimen.

Klikkaa sitten nähdäksesi säähavainnot ja -ennusteet.

Kartan vaihtaminen: klikkaa mustalla rastilla varustettuja vihreitä pisteitä, niin voit zoomata sisään; viivalla varustettua vihreää pistettä, niin voit zoomata ulos tai vihreitä nuolia, niin pääset viereisille kartoille.


METAR-TAF: